METAR Data
IDs: Format: Raw Decoded Include TAF

Data at: 1513 UTC 03 Jun 2020

KIIB 031455Z AUTO 07003KT 10SM SCT026 24/19 A2986 RMK AO2 T02380186
KIIB 031435Z AUTO 00000KT 10SM CLR 23/18 A2987 RMK AO2 T02340184
KIIB 031415Z AUTO 10004KT 10SM CLR 23/18 A2987 RMK AO2 T02300181
KIIB 031355Z AUTO 07005KT 10SM CLR 22/18 A2987 RMK AO2 T02230179
KIIB 031335Z AUTO 07005KT 10SM CLR 22/18 A2986 RMK AO2 T02170176
KIIB 031315Z AUTO 08005KT 10SM CLR 21/18 A2986 RMK AO2 T02120175
KIIB 031255Z AUTO 12007KT 10SM CLR 21/18 A2986 RMK AO2 T02100175
KIIB 031235Z AUTO 10007KT 10SM CLR 21/17 A2986 RMK AO2 T02050174
KIIB 031215Z AUTO 10008KT 10SM CLR 20/17 A2986 RMK AO2 T01950173
KIIB 031155Z AUTO 11008KT 10SM CLR 19/17 A2986 RMK AO2 T01930172
KIIB 031135Z AUTO 11008KT 10SM CLR 19/17 A2987 RMK AO2 T01920171
KIIB 031115Z AUTO 11009KT 10SM SCT027 SCT070 19/17 A2986 RMK AO2 T01900170
KIIB 031055Z AUTO 11009KT 10SM SCT070 19/17 A2986 RMK AO2 T01900169
KIIB 031035Z AUTO 11011KT 10SM SCT034 SCT045 SCT050 19/17 A2986 RMK AO2 T01910168
KIIB 031015Z AUTO 10011KT 10SM BKN034 BKN049 BKN060 19/17 A2985 RMK AO2 T01920168
KIIB 030955Z AUTO 06009KT 10SM SCT065 SCT070 19/17 A2986 RMK AO2 T01920169
KIIB 030935Z AUTO 11009KT 10SM SCT065 SCT075 19/17 A2985 RMK AO2 T01910170
KIIB 030915Z AUTO 12009KT 10SM SCT042 SCT070 BKN075 19/17 A2984 RMK AO2 T01910168
KIIB 030855Z AUTO 11010KT 10SM -DZ SCT003 SCT006 BKN042 20/17 A2985 RMK AO2 P0001 T01950167
KIIB 030835Z AUTO 09008KT 10SM -RA SCT003 SCT006 BKN046 19/17 A2985 RMK AO2 P0001 T01940166
KIIB 030815Z AUTO 09005KT 10SM -RA SCT003 BKN046 20/17 A2986 RMK AO2 T01980170
KIIB 030755Z AUTO 11007KT 10SM -RA SCT050 20/17 A2986 RMK AO2 T02030166
KIIB 030735Z AUTO 13008KT 10SM SCT050 21/16 A2987 RMK AO2 T02060162
KIIB 030715Z AUTO 05004KT 10SM OVC050 21/16 A2989 RMK AO2 T02070163
KIIB 030655Z AUTO 12015G22KT 10SM -RA SCT003 SCT012 BKN050 21/16 A2988 RMK AO2 T02060159
KIIB 030635Z AUTO 13008KT 10SM -RA SCT011 SCT050 SCT075 21/16 A2989 RMK AO2 T02110156
KIIB 030615Z AUTO 14005KT 10SM SCT075 21/16 A2989 RMK AO2 T02110155
KIIB 030555Z AUTO 12016G21KT 10SM CLR 21/16 A2988 RMK AO2 T02120155
KIIB 030535Z AUTO 11010KT 10SM CLR 21/16 A2989 RMK AO2 T02110158
KIIB 030515Z AUTO 12014G20KT 10SM CLR 21/16 A2989 RMK AO2 T02110157
KIIB 030455Z AUTO 10015KT 10SM CLR 22/16 A2989 RMK AO2 T02160155
KIIB 030435Z AUTO 10013G17KT 10SM CLR 22/16 A2991 RMK AO2 T02190155
KIIB 030415Z AUTO 07014G20KT 10SM CLR 22/15 A2991 RMK AO2 T02210153
KIIB 030355Z AUTO 10013G22KT 10SM CLR 22/15 A2990 RMK AO2 T02210154
KIIB 030335Z AUTO 08016G21KT 10SM CLR 22/16 A2990 RMK AO2 T02210156
KIIB 030315Z AUTO 06020G24KT 10SM SCT055 23/16 A2992 RMK AO2 T02300155
KIIB 030255Z AUTO 03025G33KT 10SM SCT002 SCT049 24/15 A2991 RMK AO2 T02360153
KIIB 030235Z AUTO 23007KT 10SM CLR 28/19 A2983 RMK AO2 T02760185
KIIB 030215Z AUTO 22008KT 10SM CLR 28/18 A2982 RMK AO2 T02790176
KIIB 030155Z AUTO 23009KT 10SM CLR 29/17 A2983 RMK AO2 T02890171
KIIB 030135Z AUTO 24008KT 10SM CLR 29/17 A2983 RMK AO2 T02910171
KIIB 030115Z AUTO 23007KT 10SM CLR 29/17 A2983 RMK AO2 T02940171
KIIB 030055Z AUTO 24008KT 10SM CLR 30/17 A2982 RMK AO2 T03020168
KIIB 030035Z AUTO 22009G19KT 10SM CLR 31/17 A2980 RMK AO2 T03070168
KIIB 030015Z AUTO 23012G17KT 10SM CLR 32/18 A2978 RMK AO2 T03180176
KIIB 022355Z AUTO 24014G20KT 10SM CLR 32/17 A2980 RMK AO2 T03240171
KIIB 022335Z AUTO 24012G18KT 10SM CLR 33/17 A2980 RMK AO2 T03300172
KIIB 022315Z AUTO 23011G19KT 10SM CLR 33/17 A2979 RMK AO2 T03330167
KIIB 022255Z AUTO 23016G22KT 10SM CLR 34/17 A2980 RMK AO2 T03370171
KIIB 022235Z AUTO 23015G20KT 10SM CLR 34/17 A2980 RMK AO2 T03410170
KIIB 022215Z AUTO 24015G21KT 10SM CLR 34/17 A2980 RMK AO2 T03410171
KIIB 022155Z AUTO 23014G22KT 10SM CLR 34/17 A2980 RMK AO2 T03430172
KIIB 022135Z AUTO 22015G23KT 10SM CLR 34/17 A2980 RMK AO2 T03400173
KIIB 022115Z AUTO 24015G20KT 10SM CLR 35/18 A2980 RMK AO2 T03460175
KIIB 022055Z AUTO 23016G21KT 10SM CLR 35/17 A2980 RMK AO2 T03460173
KIIB 022035Z AUTO 23014G20KT 10SM CLR 34/17 A2981 RMK AO2 T03430172
KIIB 022015Z AUTO 24014G19KT 10SM CLR 34/18 A2982 RMK AO2 T03380175
KIIB 021955Z AUTO 22014G20KT 10SM CLR 34/18 A2983 RMK AO2 T03360175
KIIB 021935Z AUTO 22011G16KT 10SM CLR 33/18 A2983 RMK AO2 T03340179
KIIB 021915Z AUTO 22012G18KT 10SM CLR 33/18 A2984 RMK AO2 T03290178
KIIB 021855Z AUTO 22014G21KT 10SM CLR 33/18 A2985 RMK AO2 T03270179
KIIB 021835Z AUTO 22012G16KT 10SM CLR 32/18 A2985 RMK AO2 T03240184
KIIB 021815Z AUTO 23010G16KT 10SM CLR 32/18 A2985 RMK AO2 T03180182
KIIB 021755Z AUTO 24009KT 10SM CLR 32/18 A2986 RMK AO2 T03150180
KIIB 021735Z AUTO 22010G15KT 10SM CLR 31/18 A2986 RMK AO2 T03070181
KIIB 021715Z AUTO 22010KT 10SM CLR 30/18 A2986 RMK AO2 T03030182
KIIB 021655Z AUTO 22010KT 10SM CLR 30/18 A2986 RMK AO2 T03010180
KIIB 021635Z AUTO 26012KT 10SM CLR 30/18 A2987 RMK AO2 T02970179
KIIB 021615Z AUTO 24012KT 10SM CLR 29/18 A2988 RMK AO2 T02920177
KIIB 021555Z AUTO 23012G17KT 10SM CLR 29/18 A2988 RMK AO2 T02870177
KIIB 021535Z AUTO 24013G17KT 10SM CLR 29/18 A2988 RMK AO2 T02850176
KIIB 021515Z AUTO 25012KT 10SM CLR 28/18 A2989 RMK AO2 T02800177
KIIB 021455Z AUTO 25015KT 10SM CLR 27/18 A2990 RMK AO2 T02690175
KIIB 021435Z AUTO 26012KT 10SM CLR 27/17 A2990 RMK AO2 T02650174
KIIB 021415Z AUTO 26018G21KT 10SM CLR 26/17 A2990 RMK AO2 T02600172
KIIB 021355Z AUTO 25013KT 10SM CLR 25/17 A2990 RMK AO2 T02540174
KIIB 021335Z AUTO 24013G16KT 10SM CLR 25/17 A2990 RMK AO2 T02470174
KIIB 021315Z AUTO 24008KT 10SM CLR 24/17 A2990 RMK AO2 T02380173
KIIB 021255Z AUTO 24009G16KT 10SM CLR 23/17 A2989 RMK AO2 T02310172
KIIB 021235Z AUTO 22008KT 10SM CLR 23/17 A2990 RMK AO2 T02250171
KIIB 021215Z AUTO 22008KT 10SM CLR 22/17 A2990 RMK AO2 T02180170
KIIB 021155Z AUTO 22007KT 10SM CLR 21/17 A2990 RMK AO2 T02120170
KIIB 021135Z AUTO 22006KT 10SM CLR 20/17 A2990 RMK AO2 T02040168
KIIB 021115Z AUTO 22007KT 10SM CLR 20/17 A2990 RMK AO2 T01990166
KIIB 021055Z AUTO 21006KT 10SM CLR 20/17 A2990 RMK AO2 T01950165
KIIB 021035Z AUTO 22006KT 10SM CLR 20/16 A2990 RMK AO2 T01950164
KIIB 021015Z AUTO 21005KT 10SM CLR 20/16 A2990 RMK AO2 T01970164
KIIB 020955Z AUTO 22007KT 10SM CLR 20/17 A2989 RMK AO2 T02040165
KIIB 020935Z AUTO 22007KT 10SM CLR 21/17 A2990 RMK AO2 T02100165
KIIB 020915Z AUTO 22008KT 10SM CLR 21/17 A2990 RMK AO2 T02130165
KIIB 020855Z AUTO 22009KT 10SM CLR 22/17 A2989 RMK AO2 T02150167
KIIB 020835Z AUTO 22008KT 10SM CLR 22/17 A2990 RMK AO2 T02150168
KIIB 020815Z AUTO 22009KT 10SM CLR 22/17 A2989 RMK AO2 T02180170
KIIB 020755Z AUTO 22009KT 10SM CLR 22/17 A2989 RMK AO2 T02170171
KIIB 020735Z AUTO 22008KT 10SM CLR 22/17 A2990 RMK AO2 T02170172
KIIB 020715Z AUTO 22011KT 10SM CLR 22/17 A2990 RMK AO2 T02190173
KIIB 020655Z AUTO 22012KT 10SM CLR 22/17 A2990 RMK AO2 T02210174
KIIB 020635Z AUTO 22010KT 10SM CLR 22/18 A2991 RMK AO2 T02220175
KIIB 020615Z AUTO 22010KT 10SM CLR 22/18 A2991 RMK AO2 T02210176
KIIB 020555Z AUTO 22010KT 10SM CLR 23/18 A2991 RMK AO2 T02250177
KIIB 020535Z AUTO 21012G17KT 10SM CLR 23/18 A2990 RMK AO2 T02250178
KIIB 020515Z AUTO 21011KT 10SM CLR 23/18 A2991 RMK AO2 T02250178
KIIB 020455Z AUTO 21013KT 10SM CLR 23/18 A2991 RMK AO2 T02270178
KIIB 020435Z AUTO 21012KT 10SM CLR 23/18 A2991 RMK AO2 T02300177
KIIB 020415Z AUTO 20012KT 10SM CLR 23/18 A2992 RMK AO2 T02340177
KIIB 020355Z AUTO 21012KT 10SM CLR 24/18 A2991 RMK AO2 T02400177
KIIB 020335Z AUTO 20013KT 10SM CLR 24/18 A2991 RMK AO2 T02400177
KIIB 020315Z AUTO 20012KT 10SM CLR 24/18 A2991 RMK AO2 T02410177